Du har inga inställningar för hoppväder.nu

Hoppväder.nu

Senast uppdaterat 04:33

UTC-tid

2021-03-01 kl. 03:33


Sol och måne

Solen går upp 6:58 och går ner 17:26 (beräknade cirkatider)
Nästa fullmåne blir om 27 dagar (2021-03-28)

METAR

ESOE (Örebro)
(13 minuter sedan)
ESOE 010320Z 23012KT CAVOK 03/01 Q1025=



ESOK (Karlstad)
(13 minuter sedan)
ESOK 010320Z AUTO 18004KT 9999 R03///// R21/P1500N NCD M03/M04 Q1026=



ESGR (Skövde)
(13 minuter sedan)
ESGR 010320Z AUTO 17004KT 9999 NCD 02/00 Q1027=



ESSD (Borlänge)
(13 minuter sedan)
ESSD 010320Z AUTO 21003KT 9999 NCD M02/M03 Q1022=



ESOW (Västerås)
(13 minuter sedan)
ESOW 010320Z AUTO 23004KT 190V280 9999 NCD 01/M01 Q1025=



TAF

ESOE (Örebro)
(63 minuter sedan)
ESOE 010230Z 0103/0109 24009KT CAVOK=



ESOK (Karlstad)
ESOK



ESGR (Skövde)
ESGR



ESSD (Borlänge)
ESSD



ESOW (Västerås)
ESOW





Kodnycklar till TAF och METAR






LHP

(Örebro är område se32g i Delområde 4)

Prognos är inte uppdaterad






Preliminär prognos